createdAt,value
2023-01-20T00:00:01.300Z,0.30
2023-01-20T00:05:00.598Z,0.28
2023-01-20T00:10:01.072Z,0.25
2023-01-20T00:15:00.581Z,0.31
2023-01-20T00:20:01.088Z,0.35
2023-01-20T00:25:00.604Z,0.39
2023-01-20T00:30:00.553Z,0.40
2023-01-20T00:35:00.579Z,0.40
2023-01-20T00:40:00.573Z,0.39
2023-01-20T00:45:00.574Z,0.39
2023-01-20T00:50:00.735Z,0.42
2023-01-20T00:55:00.589Z,0.45
2023-01-20T01:00:01.080Z,0.47
2023-01-20T01:05:00.583Z,0.43
2023-01-20T01:10:00.635Z,0.36
2023-01-20T01:15:00.850Z,0.33
2023-01-20T01:20:00.742Z,0.33
2023-01-20T01:25:00.567Z,0.27
2023-01-20T01:30:00.631Z,0.30
2023-01-20T01:35:00.635Z,0.34
2023-01-20T01:40:00.581Z,0.35
2023-01-20T01:45:10.805Z,0.36
2023-01-20T01:50:00.944Z,0.38
2023-01-20T01:55:02.122Z,0.35
2023-01-20T02:00:03.359Z,0.34
2023-01-20T02:05:01.565Z,0.33
2023-01-20T02:10:00.990Z,0.33
2023-01-20T02:15:02.721Z,0.30
2023-01-20T02:20:10.533Z,0.24
2023-01-20T02:25:14.125Z,0.27
2023-01-20T02:30:20.476Z,0.27
2023-01-20T02:35:13.830Z,0.26
2023-01-20T02:40:15.333Z,0.24
2023-01-20T02:45:11.360Z,0.23
2023-01-20T02:50:12.938Z,0.19
2023-01-20T02:55:05.391Z,0.14
2023-01-20T03:00:11.429Z,0.17
2023-01-20T03:05:06.174Z,0.16
2023-01-20T03:10:05.408Z,0.16
2023-01-20T03:15:01.294Z,0.11
2023-01-20T03:20:00.935Z,0.08
2023-01-20T03:25:02.072Z,0.07
2023-01-20T03:30:00.755Z,0.09
2023-01-20T03:35:00.591Z,0.12
2023-01-20T03:40:00.763Z,0.15
2023-01-20T03:45:16.209Z,0.10
2023-01-20T03:50:14.962Z,0.13
2023-01-20T03:55:14.536Z,0.14
2023-01-20T04:00:04.167Z,0.13
2023-01-20T04:05:02.769Z,0.14
2023-01-20T04:10:10.143Z,0.03
2023-01-20T04:15:00.960Z,0.08
2023-01-20T04:20:06.132Z,0.07
2023-01-20T04:25:12.880Z,0.07
2023-01-20T04:30:00.570Z,0.05
2023-01-20T04:35:00.626Z,0.06
2023-01-20T04:40:00.620Z,0.08
2023-01-20T04:45:00.634Z,0.10
2023-01-20T04:50:00.648Z,0.08
2023-01-20T04:55:00.760Z,0.11
2023-01-20T05:00:01.375Z,0.14
2023-01-20T05:05:00.558Z,0.13
2023-01-20T05:10:00.643Z,0.10
2023-01-20T05:15:00.621Z,0.08
2023-01-20T05:20:00.589Z,0.05
2023-01-20T05:25:00.592Z,0.04
2023-01-20T05:30:00.580Z,0.06
2023-01-20T05:35:00.576Z,0.05
2023-01-20T05:40:00.637Z,0.03
2023-01-20T05:45:00.648Z,0.05
2023-01-20T05:50:00.594Z,0.06
2023-01-20T05:55:00.571Z,0.05
2023-01-20T06:00:01.368Z,0.07
2023-01-20T06:05:00.629Z,0.06
2023-01-20T06:10:00.800Z,0.09
2023-01-20T06:15:00.861Z,0.09
2023-01-20T06:20:00.859Z,0.09
2023-01-20T06:25:00.553Z,0.07
2023-01-20T06:30:00.599Z,0.15
2023-01-20T06:35:00.611Z,0.13
2023-01-20T06:40:00.566Z,0.15
2023-01-20T06:45:00.611Z,0.13
2023-01-20T06:50:00.633Z,0.18
2023-01-20T06:55:00.554Z,0.19
2023-01-20T07:00:01.395Z,0.19
2023-01-20T07:05:00.717Z,0.21
2023-01-20T07:10:02.274Z,0.22
2023-01-20T07:15:00.590Z,0.18
2023-01-20T07:20:00.566Z,0.23
2023-01-20T07:25:00.579Z,0.27
2023-01-20T07:30:00.605Z,0.28
2023-01-20T07:35:00.542Z,0.33
2023-01-20T07:40:00.626Z,0.34
2023-01-20T07:45:00.583Z,0.29
2023-01-20T07:50:00.620Z,0.30
2023-01-20T07:55:00.581Z,0.24
2023-01-20T08:00:01.383Z,0.17
2023-01-20T08:05:00.688Z,0.14
2023-01-20T08:10:00.646Z,0.16
2023-01-20T08:15:00.573Z,0.16
2023-01-20T08:20:00.642Z,0.23
2023-01-20T08:25:00.580Z,0.26
2023-01-20T08:30:00.662Z,0.30
2023-01-20T08:35:00.604Z,0.33
2023-01-20T08:40:00.622Z,0.35
2023-01-20T08:45:00.645Z,0.39
2023-01-20T08:50:00.690Z,0.41
2023-01-20T08:55:00.931Z,0.42
2023-01-20T09:00:01.491Z,0.45
2023-01-20T09:05:00.686Z,0.48
2023-01-20T09:10:00.877Z,0.49
2023-01-20T09:15:01.277Z,0.49
2023-01-20T09:20:00.640Z,0.50
2023-01-20T09:25:00.571Z,0.50
2023-01-20T09:30:01.334Z,0.49
2023-01-20T09:35:00.668Z,0.51
2023-01-20T09:40:00.635Z,0.52
2023-01-20T09:45:12.504Z,0.56
2023-01-20T09:50:14.233Z,0.58
2023-01-20T09:55:09.025Z,0.61
2023-01-20T10:00:14.870Z,0.66
2023-01-20T10:05:09.931Z,0.70
2023-01-20T10:10:15.294Z,0.77
2023-01-20T10:15:09.217Z,0.79
2023-01-20T10:20:06.406Z,0.84
2023-01-20T10:25:08.360Z,0.82
2023-01-20T10:30:10.189Z,0.83
2023-01-20T10:35:09.159Z,0.83
2023-01-20T10:40:13.812Z,0.84
2023-01-20T10:45:00.752Z,0.85
2023-01-20T10:50:00.574Z,0.84
2023-01-20T10:55:17.456Z,0.82
2023-01-20T11:00:05.871Z,0.86
2023-01-20T11:05:15.269Z,0.90
2023-01-20T11:10:14.299Z,0.90
2023-01-20T11:15:00.953Z,0.87
2023-01-20T11:20:04.986Z,0.87
2023-01-20T11:25:03.299Z,0.86
2023-01-20T11:30:05.558Z,0.89
2023-01-20T11:35:12.034Z,0.89
2023-01-20T11:40:12.871Z,0.89
2023-01-20T11:45:20.873Z,0.88
2023-01-20T11:50:03.817Z,0.86
2023-01-20T11:55:11.771Z,0.81
2023-01-20T12:00:01.986Z,0.73
2023-01-20T12:05:03.824Z,0.69
2023-01-20T12:10:12.162Z,0.63
2023-01-20T12:15:04.586Z,0.63
2023-01-20T12:20:07.874Z,0.70
2023-01-20T12:25:20.120Z,0.85
2023-01-20T12:30:09.812Z,0.96
2023-01-20T12:35:00.751Z,1.08
2023-01-20T12:40:14.268Z,1.21
2023-01-20T12:45:20.474Z,1.25
2023-01-20T12:50:15.330Z,1.29
2023-01-20T12:55:14.586Z,1.30
2023-01-20T13:00:20.479Z,1.33
2023-01-20T13:05:16.045Z,1.31
2023-01-20T13:10:11.553Z,1.34
2023-01-20T13:15:12.928Z,1.40
2023-01-20T13:20:03.077Z,1.48
2023-01-20T13:25:00.918Z,1.49
2023-01-20T13:30:03.894Z,1.49
2023-01-20T13:35:18.821Z,1.45
2023-01-20T13:40:01.349Z,1.44
2023-01-20T13:45:11.329Z,1.46
2023-01-20T13:50:20.479Z,1.51
2023-01-20T13:55:00.580Z,1.55
2023-01-20T14:00:01.958Z,1.60
2023-01-20T14:05:00.593Z,1.64
2023-01-20T14:10:00.941Z,1.67
2023-01-20T14:15:00.667Z,1.67
2023-01-20T14:20:00.611Z,1.63
2023-01-20T14:25:00.783Z,1.59
2023-01-20T14:30:13.226Z,1.55
2023-01-20T14:35:03.054Z,1.52
2023-01-20T14:40:07.274Z,1.54
2023-01-20T14:45:00.605Z,1.56
2023-01-20T14:50:01.188Z,1.55
2023-01-20T14:55:00.600Z,1.54
2023-01-20T15:00:18.384Z,1.58
2023-01-20T15:05:01.196Z,1.63
2023-01-20T15:10:06.496Z,1.62
2023-01-20T15:15:10.747Z,1.63
2023-01-20T15:20:00.575Z,1.59
2023-01-20T15:25:10.863Z,1.57
2023-01-20T15:30:13.014Z,1.54
2023-01-20T15:35:00.563Z,1.50
2023-01-20T15:40:00.637Z,1.50
2023-01-20T15:45:00.562Z,1.51
2023-01-20T15:50:00.577Z,1.50
2023-01-20T15:55:00.559Z,1.50
2023-01-20T16:00:02.462Z,1.51
2023-01-20T16:05:00.577Z,1.51
2023-01-20T16:10:01.699Z,1.53
2023-01-20T16:15:00.564Z,1.55
2023-01-20T16:20:00.558Z,1.56
2023-01-20T16:25:00.576Z,1.59
2023-01-20T16:30:00.553Z,1.62
2023-01-20T16:35:00.574Z,1.66
2023-01-20T16:40:00.626Z,1.68
2023-01-20T16:45:00.559Z,1.70
2023-01-20T16:50:00.678Z,1.72
2023-01-20T16:55:00.549Z,1.73
2023-01-20T17:00:01.473Z,1.74
2023-01-20T17:05:00.574Z,1.75
2023-01-20T17:10:00.688Z,1.74
2023-01-20T17:15:00.582Z,1.72
2023-01-20T17:20:00.599Z,1.68
2023-01-20T17:25:00.558Z,1.66
2023-01-20T17:30:00.574Z,1.58
2023-01-20T17:35:00.843Z,1.52
2023-01-20T17:40:00.609Z,1.44
2023-01-20T17:45:00.611Z,1.32
2023-01-20T17:50:00.644Z,1.18
2023-01-20T17:55:00.570Z,1.06
2023-01-20T18:00:02.978Z,1.05
2023-01-20T18:05:00.638Z,1.06
2023-01-20T18:10:00.599Z,1.06
2023-01-20T18:15:00.556Z,1.04
2023-01-20T18:20:00.625Z,1.04
2023-01-20T18:25:00.686Z,1.02
2023-01-20T18:30:00.576Z,0.96
2023-01-20T18:35:00.612Z,0.84
2023-01-20T18:40:00.661Z,0.73
2023-01-20T18:45:01.615Z,0.63
2023-01-20T18:50:00.579Z,0.50
2023-01-20T18:55:00.563Z,0.42
2023-01-20T19:00:01.300Z,0.31
2023-01-20T19:05:00.578Z,0.20
2023-01-20T19:10:00.557Z,0.10
2023-01-20T19:15:00.573Z,0.03
2023-01-20T19:20:01.029Z,-0.04
2023-01-20T19:25:00.608Z,-0.11
2023-01-20T19:30:00.619Z,-0.18
2023-01-20T19:35:00.582Z,-0.23
2023-01-20T19:40:00.566Z,-0.27
2023-01-20T19:45:00.595Z,-0.30
2023-01-20T19:50:00.759Z,-0.34
2023-01-20T19:55:00.575Z,-0.37
2023-01-20T20:00:01.428Z,-0.41
2023-01-20T20:05:00.597Z,-0.43
2023-01-20T20:10:00.566Z,-0.48
2023-01-20T20:15:00.579Z,-0.51
2023-01-20T20:20:00.573Z,-0.53
2023-01-20T20:25:00.651Z,-0.57
2023-01-20T20:30:00.554Z,-0.59
2023-01-20T20:35:00.575Z,-0.60
2023-01-20T20:40:00.555Z,-0.62
2023-01-20T20:45:00.613Z,-0.65
2023-01-20T20:50:00.561Z,-0.70
2023-01-20T20:55:00.571Z,-0.74
2023-01-20T21:00:01.100Z,-0.78
2023-01-20T21:05:00.599Z,-0.82
2023-01-20T21:10:00.592Z,-0.85
2023-01-20T21:15:00.564Z,-0.87
2023-01-20T21:20:00.674Z,-0.90
2023-01-20T21:25:00.633Z,-0.93
2023-01-20T21:30:00.561Z,-0.96
2023-01-20T21:35:00.598Z,-0.97
2023-01-20T21:40:00.583Z,-0.99
2023-01-20T21:45:00.601Z,-1.01
2023-01-20T21:50:00.592Z,-1.04
2023-01-20T21:55:01.747Z,-1.05
2023-01-20T22:00:04.289Z,-1.07
2023-01-20T22:05:00.645Z,-1.10
2023-01-20T22:10:00.575Z,-1.11
2023-01-20T22:15:01.637Z,-1.11
2023-01-20T22:20:00.578Z,-1.13
2023-01-20T22:25:00.565Z,-1.15
2023-01-20T22:30:00.569Z,-1.16
2023-01-20T22:35:00.568Z,-1.16
2023-01-20T22:40:00.561Z,-1.17
2023-01-20T22:45:00.558Z,-1.17
2023-01-20T22:50:00.580Z,-1.17
2023-01-20T22:55:00.569Z,-1.16
2023-01-20T23:00:01.286Z,-1.18
2023-01-20T23:05:00.561Z,-1.21
2023-01-20T23:10:00.549Z,-1.24
2023-01-20T23:15:00.629Z,-1.22
2023-01-20T23:20:00.626Z,-1.20
2023-01-20T23:25:00.584Z,-1.18
2023-01-20T23:30:00.619Z,-1.19
2023-01-20T23:35:00.611Z,-1.18
2023-01-20T23:40:00.573Z,-1.18
2023-01-20T23:45:00.610Z,-1.20
2023-01-20T23:50:00.795Z,-1.23
2023-01-20T23:55:00.566Z,-1.26
